sensor_id;sensor_type;location;lat;lon;timestamp;pressure;altitude;pressure_sealevel;temperature;humidity
64602;BME280;51013;42.630;23.192;2023-03-03T00:02:11;92295.00;;;3.06;100.00
64602;BME280;51013;42.630;23.192;2023-03-03T00:04:41;92287.03;;;3.02;100.00
64602;BME280;51013;42.630;23.192;2023-03-03T00:07:07;92294.31;;;3.14;99.90
64602;BME280;51013;42.630;23.192;2023-03-03T00:09:36;92283.84;;;3.05;99.70
64602;BME280;51013;42.630;23.192;2023-03-03T00:12:19;92289.72;;;3.11;99.55
64602;BME280;51013;42.630;23.192;2023-03-03T00:14:46;92287.41;;;3.09;99.42
64602;BME280;51013;42.630;23.192;2023-03-03T00:17:20;92291.63;;;3.19;99.30
64602;BME280;51013;42.630;23.192;2023-03-03T00:19:48;92281.03;;;3.29;98.70
64602;BME280;51013;42.630;23.192;2023-03-03T00:22:28;92269.16;;;3.14;98.22
64602;BME280;51013;42.630;23.192;2023-03-03T00:24:58;92279.00;;;3.26;98.27
64602;BME280;51013;42.630;23.192;2023-03-03T00:27:29;92276.25;;;3.23;97.87
64602;BME280;51013;42.630;23.192;2023-03-03T00:29:56;92276.06;;;3.19;98.54
64602;BME280;51013;42.630;23.192;2023-03-03T00:32:26;92268.16;;;3.24;98.69
64602;BME280;51013;42.630;23.192;2023-03-03T00:34:55;92266.91;;;3.21;98.40
64602;BME280;51013;42.630;23.192;2023-03-03T00:37:31;92275.28;;;3.18;98.32
64602;BME280;51013;42.630;23.192;2023-03-03T00:40:15;92272.84;;;3.22;98.36
64602;BME280;51013;42.630;23.192;2023-03-03T00:42:48;92264.31;;;3.21;98.05
64602;BME280;51013;42.630;23.192;2023-03-03T00:45:27;92263.97;;;3.14;98.28
64602;BME280;51013;42.630;23.192;2023-03-03T00:47:54;92262.34;;;3.05;98.83
64602;BME280;51013;42.630;23.192;2023-03-03T00:50:30;92257.44;;;3.03;99.57
64602;BME280;51013;42.630;23.192;2023-03-03T00:53:03;92253.88;;;2.99;99.87
64602;BME280;51013;42.630;23.192;2023-03-03T00:55:30;92253.41;;;2.97;99.82
64602;BME280;51013;42.630;23.192;2023-03-03T00:57:57;92255.25;;;2.96;99.67
64602;BME280;51013;42.630;23.192;2023-03-03T01:00:24;92246.28;;;3.03;99.58
64602;BME280;51013;42.630;23.192;2023-03-03T01:02:50;92229.34;;;3.05;99.44
64602;BME280;51013;42.630;23.192;2023-03-03T01:05:20;92242.53;;;3.09;99.18
64602;BME280;51013;42.630;23.192;2023-03-03T01:07:48;92236.44;;;3.13;98.98
64602;BME280;51013;42.630;23.192;2023-03-03T01:10:14;92240.19;;;3.21;99.03
64602;BME280;51013;42.630;23.192;2023-03-03T01:12:41;92244.69;;;3.29;98.60
64602;BME280;51013;42.630;23.192;2023-03-03T01:15:11;92218.94;;;3.19;98.24
64602;BME280;51013;42.630;23.192;2023-03-03T01:17:38;92231.88;;;3.33;98.37
64602;BME280;51013;42.630;23.192;2023-03-03T01:20:09;92231.97;;;3.28;98.76
64602;BME280;51013;42.630;23.192;2023-03-03T01:22:37;92235.59;;;3.40;98.05
64602;BME280;51013;42.630;23.192;2023-03-03T01:25:06;92237.72;;;3.38;97.77
64602;BME280;51013;42.630;23.192;2023-03-03T01:27:34;92237.13;;;3.41;97.70
64602;BME280;51013;42.630;23.192;2023-03-03T01:30:01;92236.75;;;3.34;97.87
64602;BME280;51013;42.630;23.192;2023-03-03T01:32:28;92235.25;;;3.33;97.84
64602;BME280;51013;42.630;23.192;2023-03-03T01:34:55;92223.91;;;3.29;98.14
64602;BME280;51013;42.630;23.192;2023-03-03T01:37:22;92234.78;;;3.31;97.96
64602;BME280;51013;42.630;23.192;2023-03-03T01:39:49;92224.19;;;3.28;98.04
64602;BME280;51013;42.630;23.192;2023-03-03T01:42:18;92227.41;;;3.25;98.71
64602;BME280;51013;42.630;23.192;2023-03-03T01:44:45;92226.91;;;3.23;98.26
64602;BME280;51013;42.630;23.192;2023-03-03T01:47:14;92206.28;;;3.04;99.27
64602;BME280;51013;42.630;23.192;2023-03-03T01:49:46;92220.94;;;3.22;98.91
64602;BME280;51013;42.630;23.192;2023-03-03T01:52:21;92217.88;;;3.20;99.02
64602;BME280;51013;42.630;23.192;2023-03-03T01:54:51;92092.31;;;2.34;99.14
64602;BME280;51013;42.630;23.192;2023-03-03T01:57:26;92202.22;;;3.11;99.27
64602;BME280;51013;42.630;23.192;2023-03-03T01:59:57;92206.72;;;3.19;98.73
64602;BME280;51013;42.630;23.192;2023-03-03T02:02:26;92206.41;;;3.35;98.58
64602;BME280;51013;42.630;23.192;2023-03-03T02:04:54;92215.72;;;3.36;97.86
64602;BME280;51013;42.630;23.192;2023-03-03T02:07:22;92216.41;;;3.28;98.77
64602;BME280;51013;42.630;23.192;2023-03-03T02:09:55;92209.09;;;3.30;98.73
64602;BME280;51013;42.630;23.192;2023-03-03T02:12:30;92212.28;;;3.27;98.82
64602;BME280;51013;42.630;23.192;2023-03-03T02:14:58;92208.03;;;3.31;98.59
64602;BME280;51013;42.630;23.192;2023-03-03T02:17:25;92199.59;;;3.25;98.20
64602;BME280;51013;42.630;23.192;2023-03-03T02:19:58;92199.00;;;3.28;98.52
64602;BME280;51013;42.630;23.192;2023-03-03T02:22:33;92211.97;;;3.28;98.64
64602;BME280;51013;42.630;23.192;2023-03-03T02:25:07;92171.19;;;3.06;98.57
64602;BME280;51013;42.630;23.192;2023-03-03T02:27:38;92209.63;;;3.40;98.64
64602;BME280;51013;42.630;23.192;2023-03-03T02:30:14;92208.44;;;3.24;98.65
64602;BME280;51013;42.630;23.192;2023-03-03T02:32:41;92212.03;;;3.14;99.27
64602;BME280;51013;42.630;23.192;2023-03-03T02:35:35;92199.34;;;3.13;99.31
64602;BME280;51013;42.630;23.192;2023-03-03T02:38:10;92197.63;;;3.08;99.45
64602;BME280;51013;42.630;23.192;2023-03-03T02:40:44;92209.44;;;3.14;99.54
64602;BME280;51013;42.630;23.192;2023-03-03T02:43:18;92192.34;;;2.99;99.59
64602;BME280;51013;42.630;23.192;2023-03-03T02:45:45;92202.69;;;3.13;99.69
64602;BME280;51013;42.630;23.192;2023-03-03T02:48:12;92204.53;;;3.13;99.82
64602;BME280;51013;42.630;23.192;2023-03-03T02:50:40;92204.34;;;3.09;100.00
64602;BME280;51013;42.630;23.192;2023-03-03T02:53:06;92201.09;;;3.04;100.00
64602;BME280;51013;42.630;23.192;2023-03-03T02:55:33;92200.75;;;2.96;100.00
64602;BME280;51013;42.630;23.192;2023-03-03T02:58:20;92201.22;;;2.98;100.00
64602;BME280;51013;42.630;23.192;2023-03-03T03:00:46;92192.16;;;2.96;100.00
64602;BME280;51013;42.630;23.192;2023-03-03T03:03:15;92191.59;;;2.99;100.00
64602;BME280;51013;42.630;23.192;2023-03-03T03:05:41;92194.66;;;3.01;100.00
64602;BME280;51013;42.630;23.192;2023-03-03T03:08:08;92194.41;;;2.89;100.00
64602;BME280;51013;42.630;23.192;2023-03-03T03:10:35;92178.94;;;2.84;100.00
64602;BME280;51013;42.630;23.192;2023-03-03T03:13:02;92187.16;;;2.99;100.00
64602;BME280;51013;42.630;23.192;2023-03-03T03:15:30;92188.94;;;2.90;100.00
64602;BME280;51013;42.630;23.192;2023-03-03T03:17:57;92193.47;;;2.85;100.00
64602;BME280;51013;42.630;23.192;2023-03-03T03:20:24;92190.25;;;2.88;100.00
64602;BME280;51013;42.630;23.192;2023-03-03T03:22:51;92190.94;;;2.93;100.00
64602;BME280;51013;42.630;23.192;2023-03-03T03:25:17;92191.81;;;2.89;100.00
64602;BME280;51013;42.630;23.192;2023-03-03T03:27:46;92185.56;;;2.90;100.00
64602;BME280;51013;42.630;23.192;2023-03-03T03:30:13;92185.06;;;2.88;100.00
64602;BME280;51013;42.630;23.192;2023-03-03T03:32:43;92185.56;;;2.90;100.00
64602;BME280;51013;42.630;23.192;2023-03-03T03:35:11;92183.47;;;2.78;100.00
64602;BME280;51013;42.630;23.192;2023-03-03T03:37:38;92183.09;;;2.71;100.00
64602;BME280;51013;42.630;23.192;2023-03-03T03:40:06;92182.06;;;2.72;100.00
64602;BME280;51013;42.630;23.192;2023-03-03T03:42:32;92179.66;;;2.61;100.00
64602;BME280;51013;42.630;23.192;2023-03-03T03:44:59;92179.66;;;2.61;100.00
64602;BME280;51013;42.630;23.192;2023-03-03T03:47:26;92174.28;;;2.58;100.00
64602;BME280;51013;42.630;23.192;2023-03-03T03:49:54;92175.66;;;2.42;100.00
64602;BME280;51013;42.630;23.192;2023-03-03T03:52:20;92170.75;;;2.40;100.00
64602;BME280;51013;42.630;23.192;2023-03-03T03:54:47;92175.53;;;2.47;100.00
64602;BME280;51013;42.630;23.192;2023-03-03T03:57:14;92166.59;;;2.39;100.00
64602;BME280;51013;42.630;23.192;2023-03-03T03:59:43;92177.44;;;2.55;100.00
64602;BME280;51013;42.630;23.192;2023-03-03T04:02:09;92162.09;;;2.58;100.00
64602;BME280;51013;42.630;23.192;2023-03-03T04:04:36;92136.09;;;2.36;100.00
64602;BME280;51013;42.630;23.192;2023-03-03T04:07:04;92169.31;;;2.34;100.00
64602;BME280;51013;42.630;23.192;2023-03-03T04:09:31;92166.72;;;2.20;100.00
64602;BME280;51013;42.630;23.192;2023-03-03T04:11:57;92169.88;;;2.31;100.00
64602;BME280;51013;42.630;23.192;2023-03-03T04:14:24;92168.91;;;2.27;100.00
64602;BME280;51013;42.630;23.192;2023-03-03T04:16:51;92176.22;;;2.25;100.00
64602;BME280;51013;42.630;23.192;2023-03-03T04:19:18;92170.28;;;2.38;100.00
64602;BME280;51013;42.630;23.192;2023-03-03T04:21:45;92174.09;;;2.40;100.00
64602;BME280;51013;42.630;23.192;2023-03-03T04:24:13;92165.19;;;2.33;100.00
64602;BME280;51013;42.630;23.192;2023-03-03T04:26:39;92170.16;;;2.43;100.00
64602;BME280;51013;42.630;23.192;2023-03-03T04:29:06;92166.31;;;2.40;100.00
64602;BME280;51013;42.630;23.192;2023-03-03T04:31:33;92173.81;;;2.42;100.00
64602;BME280;51013;42.630;23.192;2023-03-03T04:33:59;92171.13;;;2.47;100.00
64602;BME280;51013;42.630;23.192;2023-03-03T04:36:26;92174.78;;;2.46;100.00
64602;BME280;51013;42.630;23.192;2023-03-03T04:38:53;92156.06;;;2.35;100.00
64602;BME280;51013;42.630;23.192;2023-03-03T04:41:21;92173.81;;;2.42;100.00
64602;BME280;51013;42.630;23.192;2023-03-03T04:43:49;92165.75;;;2.44;100.00
64602;BME280;51013;42.630;23.192;2023-03-03T04:46:16;92171.63;;;2.35;100.00
64602;BME280;51013;42.630;23.192;2023-03-03T04:48:42;92169.31;;;2.34;100.00
64602;BME280;51013;42.630;23.192;2023-03-03T04:51:09;92172.00;;;2.29;100.00
64602;BME280;51013;42.630;23.192;2023-03-03T04:53:36;92170.94;;;2.30;100.00
64602;BME280;51013;42.630;23.192;2023-03-03T04:56:03;92178.53;;;2.40;100.00
64602;BME280;51013;42.630;23.192;2023-03-03T04:58:31;92137.44;;;2.19;100.00
64602;BME280;51013;42.630;23.192;2023-03-03T05:00:58;92177.38;;;2.46;100.00
64602;BME280;51013;42.630;23.192;2023-03-03T05:03:25;92170.94;;;2.30;100.00
64602;BME280;51013;42.630;23.192;2023-03-03T05:05:52;92132.47;;;2.09;100.00
64602;BME280;51013;42.630;23.192;2023-03-03T05:08:20;92174.22;;;2.22;100.00
64602;BME280;51013;42.630;23.192;2023-03-03T05:10:50;92176.63;;;2.32;100.00
64602;BME280;51013;42.630;23.192;2023-03-03T05:13:17;92183.81;;;2.35;100.00
64602;BME280;51013;42.630;23.192;2023-03-03T05:15:51;92181.59;;;2.42;100.00
64602;BME280;51013;42.630;23.192;2023-03-03T05:18:21;92184.94;;;2.43;100.00
64602;BME280;51013;42.630;23.192;2023-03-03T05:20:50;92182.75;;;2.50;100.00
64602;BME280;51013;42.630;23.192;2023-03-03T05:23:17;92187.16;;;2.49;100.00
64602;BME280;51013;42.630;23.192;2023-03-03T05:25:46;92173.53;;;2.44;100.00
64602;BME280;51013;42.630;23.192;2023-03-03T05:28:13;92174.97;;;2.36;100.00
64602;BME280;51013;42.630;23.192;2023-03-03T05:30:40;92188.03;;;2.45;100.00
64602;BME280;51013;42.630;23.192;2023-03-03T05:33:09;92182.66;;;2.41;100.00
64602;BME280;51013;42.630;23.192;2023-03-03T05:35:38;92184.66;;;2.44;100.00
64602;BME280;51013;42.630;23.192;2023-03-03T05:38:05;92182.75;;;2.50;100.00
64602;BME280;51013;42.630;23.192;2023-03-03T05:40:31;92184.88;;;2.48;100.00
64602;BME280;51013;42.630;23.192;2023-03-03T05:42:58;92192.06;;;2.51;100.00
64602;BME280;51013;42.630;23.192;2023-03-03T05:45:25;92193.41;;;2.62;100.00
64602;BME280;51013;42.630;23.192;2023-03-03T05:47:52;92185.63;;;2.62;100.00
64602;BME280;51013;42.630;23.192;2023-03-03T05:50:23;92190.69;;;2.53;100.00
64602;BME280;51013;42.630;23.192;2023-03-03T05:52:51;92199.34;;;2.63;100.00
64602;BME280;51013;42.630;23.192;2023-03-03T05:55:18;92200.13;;;2.49;100.00
64602;BME280;51013;42.630;23.192;2023-03-03T05:57:46;92195.13;;;2.39;100.00
64602;BME280;51013;42.630;23.192;2023-03-03T06:00:14;92191.28;;;2.36;100.00
64602;BME280;51013;42.630;23.192;2023-03-03T06:02:42;92195.53;;;2.32;100.00
64602;BME280;51013;42.630;23.192;2023-03-03T06:05:09;92195.59;;;2.41;100.00
64602;BME280;51013;42.630;23.192;2023-03-03T06:07:37;92199.75;;;2.42;100.00
64602;BME280;51013;42.630;23.192;2023-03-03T06:10:05;92199.56;;;2.52;100.00
64602;BME280;51013;42.630;23.192;2023-03-03T06:12:32;92198.88;;;2.47;100.00
64602;BME280;51013;42.630;23.192;2023-03-03T06:14:59;92199.56;;;2.52;100.00
64602;BME280;51013;42.630;23.192;2023-03-03T06:17:26;92203.84;;;2.57;100.00
64602;BME280;51013;42.630;23.192;2023-03-03T06:19:53;92204.81;;;2.61;100.00
64602;BME280;51013;42.630;23.192;2023-03-03T06:22:19;92204.81;;;2.61;100.00
64602;BME280;51013;42.630;23.192;2023-03-03T06:24:49;92191.50;;;2.54;100.00
64602;BME280;51013;42.630;23.192;2023-03-03T06:27:18;92193.28;;;2.53;100.00
64602;BME280;51013;42.630;23.192;2023-03-03T06:29:45;92206.94;;;2.59;100.00
64602;BME280;51013;42.630;23.192;2023-03-03T06:32:12;92210.97;;;2.51;100.00
64602;BME280;51013;42.630;23.192;2023-03-03T06:34:38;92207.81;;;2.54;100.00
64602;BME280;51013;42.630;23.192;2023-03-03T06:37:05;92205.63;;;2.48;100.00
64602;BME280;51013;42.630;23.192;2023-03-03T06:39:32;92209.44;;;2.50;100.00
64602;BME280;51013;42.630;23.192;2023-03-03T06:42:00;92214.03;;;2.53;100.00
64602;BME280;51013;42.630;23.192;2023-03-03T06:44:27;92215.47;;;2.59;100.00
64602;BME280;51013;42.630;23.192;2023-03-03T06:46:54;92191.50;;;2.40;100.00
64602;BME280;51013;42.630;23.192;2023-03-03T06:49:21;92219.81;;;2.64;100.00
64602;BME280;51013;42.630;23.192;2023-03-03T06:51:49;92224.03;;;2.74;100.00
64602;BME280;51013;42.630;23.192;2023-03-03T06:54:18;92221.81;;;2.67;100.00
64602;BME280;51013;42.630;23.192;2023-03-03T06:56:46;92225.34;;;2.85;100.00
64602;BME280;51013;42.630;23.192;2023-03-03T06:59:15;92204.63;;;2.71;100.00
64602;BME280;51013;42.630;23.192;2023-03-03T07:01:43;92221.50;;;2.96;100.00
64602;BME280;51013;42.630;23.192;2023-03-03T07:04:16;92205.84;;;2.88;100.00
64602;BME280;51013;42.630;23.192;2023-03-03T07:06:47;92228.38;;;3.15;100.00
64602;BME280;51013;42.630;23.192;2023-03-03T07:09:19;92227.81;;;3.04;100.00
64602;BME280;51013;42.630;23.192;2023-03-03T07:11:46;92225.25;;;2.90;100.00
64602;BME280;51013;42.630;23.192;2023-03-03T07:14:17;92228.81;;;2.94;100.00
64602;BME280;51013;42.630;23.192;2023-03-03T07:16:44;92224.63;;;3.07;100.00
64602;BME280;51013;42.630;23.192;2023-03-03T07:19:17;92215.63;;;3.05;100.00
64602;BME280;51013;42.630;23.192;2023-03-03T07:21:44;92230.84;;;3.20;100.00
64602;BME280;51013;42.630;23.192;2023-03-03T07:24:21;92227.97;;;3.21;100.00
64602;BME280;51013;42.630;23.192;2023-03-03T07:27:08;92227.13;;;3.12;100.00
64602;BME280;51013;42.630;23.192;2023-03-03T07:29:37;92224.00;;;3.24;100.00
64602;BME280;51013;42.630;23.192;2023-03-03T07:32:18;92226.78;;;3.28;100.00
64602;BME280;51013;42.630;23.192;2023-03-03T07:34:47;92228.69;;;3.36;100.00
64602;BME280;51013;42.630;23.192;2023-03-03T07:37:16;92231.00;;;3.37;99.90
64602;BME280;51013;42.630;23.192;2023-03-03T07:39:46;92180.22;;;3.09;100.00
64602;BME280;51013;42.630;23.192;2023-03-03T07:42:21;92215.66;;;3.27;99.66
64602;BME280;51013;42.630;23.192;2023-03-03T07:44:51;92216.41;;;3.28;99.43
64602;BME280;51013;42.630;23.192;2023-03-03T07:47:22;92198.53;;;3.26;99.31
64602;BME280;51013;42.630;23.192;2023-03-03T07:49:50;92215.28;;;3.42;99.42
64602;BME280;51013;42.630;23.192;2023-03-03T07:52:37;92221.50;;;3.55;99.10
64602;BME280;51013;42.630;23.192;2023-03-03T07:55:22;92215.88;;;3.62;99.42
64602;BME280;51013;42.630;23.192;2023-03-03T07:57:53;92217.19;;;3.73;97.73
64602;BME280;51013;42.630;23.192;2023-03-03T08:03:27;92216.88;;;3.75;99.12
64602;BME280;51013;42.630;23.192;2023-03-03T08:05:54;92213.69;;;3.78;99.68
64602;BME280;51013;42.630;23.192;2023-03-03T08:08:28;92211.78;;;3.92;98.90
64602;BME280;51013;42.630;23.192;2023-03-03T08:10:59;92224.28;;;3.81;98.35
64602;BME280;51013;42.630;23.192;2023-03-03T08:13:28;92211.91;;;3.87;98.26
64602;BME280;51013;42.630;23.192;2023-03-03T08:16:20;92211.06;;;4.00;97.69
64602;BME280;51013;42.630;23.192;2023-03-03T08:18:52;92211.38;;;3.99;97.32
64602;BME280;51013;42.630;23.192;2023-03-03T08:21:20;92210.16;;;4.05;97.24
64602;BME280;51013;42.630;23.192;2023-03-03T08:23:47;92207.88;;;4.04;97.63
64602;BME280;51013;42.630;23.192;2023-03-03T08:26:16;92206.97;;;4.08;97.52
64602;BME280;51013;42.630;23.192;2023-03-03T08:28:43;92201.19;;;4.11;97.83
64602;BME280;51013;42.630;23.192;2023-03-03T08:31:10;92196.63;;;4.17;97.96
64602;BME280;51013;42.630;23.192;2023-03-03T08:33:37;92193.00;;;4.27;99.85
64602;BME280;51013;42.630;23.192;2023-03-03T08:36:06;92200.91;;;4.61;98.02
64602;BME280;51013;42.630;23.192;2023-03-03T08:38:34;92200.50;;;4.77;95.60
64602;BME280;51013;42.630;23.192;2023-03-03T08:41:01;92194.34;;;4.73;95.74
64602;BME280;51013;42.630;23.192;2023-03-03T08:43:30;92200.78;;;4.75;95.94
64602;BME280;51013;42.630;23.192;2023-03-03T08:46:00;92200.94;;;4.79;96.46
64602;BME280;51013;42.630;23.192;2023-03-03T08:48:31;92199.56;;;4.90;96.41
64602;BME280;51013;42.630;23.192;2023-03-03T08:50:58;92204.16;;;4.76;97.30
64602;BME280;51013;42.630;23.192;2023-03-03T08:53:28;92198.00;;;4.63;97.64
64602;BME280;51013;42.630;23.192;2023-03-03T08:55:58;92203.06;;;4.68;97.16
64602;BME280;51013;42.630;23.192;2023-03-03T08:58:25;92200.31;;;4.73;96.22
64602;BME280;51013;42.630;23.192;2023-03-03T09:00:53;92206.63;;;4.81;96.77
64602;BME280;51013;42.630;23.192;2023-03-03T09:03:20;92214.91;;;4.92;96.75
64602;BME280;51013;42.630;23.192;2023-03-03T09:05:47;92208.78;;;4.96;97.46
64602;BME280;51013;42.630;23.192;2023-03-03T09:08:13;92207.41;;;4.99;96.75
64602;BME280;51013;42.630;23.192;2023-03-03T09:10:42;92211.72;;;5.12;96.43
64602;BME280;51013;42.630;23.192;2023-03-03T09:13:13;92207.25;;;4.95;96.47
64602;BME280;51013;42.630;23.192;2023-03-03T09:15:41;92203.91;;;4.95;95.58
64602;BME280;51013;42.630;23.192;2023-03-03T09:18:14;92210.63;;;5.05;95.73
64602;BME280;51013;42.630;23.192;2023-03-03T09:20:42;92209.56;;;4.97;95.66
64602;BME280;51013;42.630;23.192;2023-03-03T09:23:28;92212.00;;;5.02;95.44
64602;BME280;51013;42.630;23.192;2023-03-03T09:26:10;92198.41;;;5.05;95.27
64602;BME280;51013;42.630;23.192;2023-03-03T09:28:39;92210.31;;;5.15;94.58
64602;BME280;51013;42.630;23.192;2023-03-03T09:31:20;92208.94;;;5.09;94.27
64602;BME280;51013;42.630;23.192;2023-03-03T09:33:48;92208.47;;;4.98;95.39
64602;BME280;51013;42.630;23.192;2023-03-03T09:36:21;92200.50;;;4.94;94.79
64602;BME280;51013;42.630;23.192;2023-03-03T09:38:48;92212.94;;;5.15;94.84
64602;BME280;51013;42.630;23.192;2023-03-03T09:41:30;92213.09;;;5.18;95.14
64602;BME280;51013;42.630;23.192;2023-03-03T09:44:29;92220.44;;;5.08;93.05
64602;BME280;51013;42.630;23.192;2023-03-03T09:47:13;92212.63;;;4.99;93.37
64602;BME280;51013;42.630;23.192;2023-03-03T09:49:50;92216.59;;;4.96;94.05
64602;BME280;51013;42.630;23.192;2023-03-03T09:52:33;92213.56;;;5.03;93.71
64602;BME280;51013;42.630;23.192;2023-03-03T09:55:29;92213.56;;;5.03;93.88
64602;BME280;51013;42.630;23.192;2023-03-03T09:58:10;92205.56;;;5.08;94.36
64602;BME280;51013;42.630;23.192;2023-03-03T10:00:44;92208.66;;;5.10;94.58
64602;BME280;51013;42.630;23.192;2023-03-03T10:06:21;92208.63;;;5.01;95.01
64602;BME280;51013;42.630;23.192;2023-03-03T10:09:09;92194.41;;;4.99;95.96
64602;BME280;51013;42.630;23.192;2023-03-03T10:11:44;92205.75;;;5.03;97.07
64602;BME280;51013;42.630;23.192;2023-03-03T10:14:34;92205.56;;;5.08;96.68
64602;BME280;51013;42.630;23.192;2023-03-03T10:17:16;92200.22;;;5.05;96.55
64602;BME280;51013;42.630;23.192;2023-03-03T10:19:54;92201.47;;;5.07;97.08
64602;BME280;51013;42.630;23.192;2023-03-03T10:22:32;92199.31;;;5.18;96.78
64602;BME280;51013;42.630;23.192;2023-03-03T10:25:11;92196.38;;;5.02;96.60
64602;BME280;51013;42.630;23.192;2023-03-03T10:27:53;92196.09;;;5.04;97.25
64602;BME280;51013;42.630;23.192;2023-03-03T10:30:27;92191.81;;;5.08;98.03
64602;BME280;51013;42.630;23.192;2023-03-03T10:33:07;92193.16;;;4.96;96.38
64602;BME280;51013;42.630;23.192;2023-03-03T10:35:44;92174.31;;;4.82;97.79
64602;BME280;51013;42.630;23.192;2023-03-03T10:38:24;92191.47;;;4.83;98.25
64602;BME280;51013;42.630;23.192;2023-03-03T10:41:04;92190.81;;;4.69;99.15
64602;BME280;51013;42.630;23.192;2023-03-03T10:44:11;92192.53;;;4.82;100.00
64602;BME280;51013;42.630;23.192;2023-03-03T10:46:51;92189.88;;;4.56;99.84
64602;BME280;51013;42.630;23.192;2023-03-03T10:49:37;92180.72;;;4.58;100.00
64602;BME280;51013;42.630;23.192;2023-03-03T10:52:27;92181.31;;;4.64;100.00
64602;BME280;51013;42.630;23.192;2023-03-03T10:55:31;92176.91;;;4.73;99.65
64602;BME280;51013;42.630;23.192;2023-03-03T10:58:11;92174.47;;;4.77;99.18
64602;BME280;51013;42.630;23.192;2023-03-03T11:00:43;92167.88;;;4.79;100.00
64602;BME280;51013;42.630;23.192;2023-03-03T11:06:18;92164.94;;;4.72;99.69
64602;BME280;51013;42.630;23.192;2023-03-03T11:08:52;92169.13;;;4.91;99.82
64602;BME280;51013;42.630;23.192;2023-03-03T11:11:30;92167.41;;;4.86;100.00
64602;BME280;51013;42.630;23.192;2023-03-03T11:14:07;92158.25;;;4.97;99.74
64602;BME280;51013;42.630;23.192;2023-03-03T11:16:44;92147.22;;;4.83;99.54
64602;BME280;51013;42.630;23.192;2023-03-03T11:19:28;92145.25;;;4.97;99.66
64602;BME280;51013;42.630;23.192;2023-03-03T11:22:07;92149.06;;;5.09;100.00
64602;BME280;51013;42.630;23.192;2023-03-03T11:24:48;92151.69;;;5.17;100.00
64602;BME280;51013;42.630;23.192;2023-03-03T11:27:25;92148.31;;;5.26;100.00
64602;BME280;51013;42.630;23.192;2023-03-03T11:30:11;92152.91;;;5.37;100.00
64602;BME280;51013;42.630;23.192;2023-03-03T11:32:47;92151.03;;;5.47;98.61
64602;BME280;51013;42.630;23.192;2023-03-03T11:35:22;92154.13;;;5.05;99.66
64602;BME280;51013;42.630;23.192;2023-03-03T11:37:57;92156.09;;;5.17;100.00
64602;BME280;51013;42.630;23.192;2023-03-03T11:40:34;92155.81;;;5.18;100.00
64602;BME280;51013;42.630;23.192;2023-03-03T11:43:10;92143.09;;;4.99;100.00
64602;BME280;51013;42.630;23.192;2023-03-03T11:45:43;92157.03;;;5.12;99.91
64602;BME280;51013;42.630;23.192;2023-03-03T11:48:16;92159.03;;;5.24;99.79
64602;BME280;51013;42.630;23.192;2023-03-03T11:50:52;92149.06;;;5.00;100.00
64602;BME280;51013;42.630;23.192;2023-03-03T11:53:34;92149.84;;;5.18;100.00
64602;BME280;51013;42.630;23.192;2023-03-03T11:56:09;92149.06;;;5.09;100.00
64602;BME280;51013;42.630;23.192;2023-03-03T11:58:44;92142.47;;;5.20;100.00
64602;BME280;51013;42.630;23.192;2023-03-03T12:01:17;92149.06;;;5.00;99.20
64602;BME280;51013;42.630;23.192;2023-03-03T12:03:48;92139.72;;;4.99;99.33
64602;BME280;51013;42.630;23.192;2023-03-03T12:06:24;92152.88;;;4.94;99.25
64602;BME280;51013;42.630;23.192;2023-03-03T12:09:05;92148.13;;;4.96;99.26
64602;BME280;51013;42.630;23.192;2023-03-03T12:11:42;92150.00;;;4.95;99.72
64602;BME280;51013;42.630;23.192;2023-03-03T12:14:16;92151.63;;;4.74;99.89
64602;BME280;51013;42.630;23.192;2023-03-03T12:16:51;92149.81;;;4.83;100.00
64602;BME280;51013;42.630;23.192;2023-03-03T12:19:29;92152.59;;;4.95;100.00
64602;BME280;51013;42.630;23.192;2023-03-03T12:22:14;92150.75;;;4.96;98.40
64602;BME280;51013;42.630;23.192;2023-03-03T12:24:58;92154.09;;;4.88;97.75
64602;BME280;51013;42.630;23.192;2023-03-03T12:27:34;92127.13;;;4.66;99.16
64602;BME280;51013;42.630;23.192;2023-03-03T12:30:16;92143.03;;;4.56;99.08
64602;BME280;51013;42.630;23.192;2023-03-03T12:33:05;92144.75;;;4.60;99.97
64602;BME280;51013;42.630;23.192;2023-03-03T12:35:40;92139.69;;;4.64;99.56
64602;BME280;51013;42.630;23.192;2023-03-03T12:38:17;92150.28;;;4.94;100.00
64602;BME280;51013;42.630;23.192;2023-03-03T12:40:50;92153.34;;;5.05;100.00
64602;BME280;51013;42.630;23.192;2023-03-03T12:43:32;92150.44;;;5.15;100.00
64602;BME280;51013;42.630;23.192;2023-03-03T12:46:12;92150.59;;;5.36;98.65
64602;BME280;51013;42.630;23.192;2023-03-03T12:48:44;92144.00;;;5.38;100.00
64602;BME280;51013;42.630;23.192;2023-03-03T12:51:19;92151.50;;;5.49;100.00
64602;BME280;51013;42.630;23.192;2023-03-03T12:54:01;92152.25;;;5.49;98.25
64602;BME280;51013;42.630;23.192;2023-03-03T12:56:40;92154.41;;;5.38;97.97
64602;BME280;51013;42.630;23.192;2023-03-03T12:59:14;92129.31;;;5.16;97.75
64602;BME280;51013;42.630;23.192;2023-03-03T13:02:02;92124.69;;;5.31;98.66
64602;BME280;51013;42.630;23.192;2023-03-03T13:04:35;92140.63;;;5.38;98.71
64602;BME280;51013;42.630;23.192;2023-03-03T13:07:11;92141.38;;;5.56;99.05
64602;BME280;51013;42.630;23.192;2023-03-03T13:09:56;92137.84;;;5.52;99.30
64602;BME280;51013;42.630;23.192;2023-03-03T13:12:30;92142.13;;;5.56;99.46
64602;BME280;51013;42.630;23.192;2023-03-03T13:15:06;92120.19;;;5.57;100.00
64602;BME280;51013;42.630;23.192;2023-03-03T13:17:39;92130.13;;;5.73;99.52
64602;BME280;51013;42.630;23.192;2023-03-03T13:20:20;92134.53;;;5.90;99.51
64602;BME280;51013;42.630;23.192;2023-03-03T13:22:51;92133.91;;;5.93;99.34
64602;BME280;51013;42.630;23.192;2023-03-03T13:25:37;92131.16;;;5.98;99.15
64602;BME280;51013;42.630;23.192;2023-03-03T13:28:12;92126.03;;;6.10;99.01
64602;BME280;51013;42.630;23.192;2023-03-03T13:30:47;92131.69;;;6.21;98.65